createdAt,value
2018-11-25T00:00:02.769Z,100146.70
2018-11-25T00:02:38.332Z,100143.77
2018-11-25T00:05:08.068Z,100137.77
2018-11-25T00:07:37.137Z,100130.73
2018-11-25T00:10:07.760Z,100123.91
2018-11-25T00:12:36.719Z,100123.19
2018-11-25T00:15:07.570Z,100121.87
2018-11-25T00:17:39.240Z,100124.50
2018-11-25T00:20:10.793Z,100118.89
2018-11-25T00:22:39.856Z,100127.83
2018-11-25T00:25:13.539Z,100123.05
2018-11-25T00:27:42.377Z,100124.66
2018-11-25T00:30:13.227Z,100124.66
2018-11-25T00:32:42.130Z,100128.13
2018-11-25T00:35:14.690Z,100126.88
2018-11-25T00:37:48.285Z,100126.64
2018-11-25T00:40:15.361Z,100129.34
2018-11-25T00:42:45.220Z,100136.99
2018-11-25T00:45:19.084Z,100126.51
2018-11-25T00:47:48.421Z,100124.20
2018-11-25T00:50:17.754Z,100118.12
2018-11-25T00:52:46.721Z,100123.80
2018-11-25T00:55:17.268Z,100119.42
2018-11-25T00:57:46.814Z,100122.95
2018-11-25T01:00:19.700Z,100126.34
2018-11-25T01:02:50.156Z,100125.44
2018-11-25T01:05:19.925Z,100126.34
2018-11-25T01:07:49.571Z,100128.05
2018-11-25T01:10:19.344Z,100124.03
2018-11-25T01:12:49.005Z,100120.28
2018-11-25T01:15:18.507Z,100123.19
2018-11-25T01:17:47.830Z,100117.72
2018-11-25T01:20:19.188Z,100119.80
2018-11-25T01:22:47.998Z,100115.50
2018-11-25T01:25:18.793Z,100119.52
2018-11-25T01:27:47.536Z,100118.57
2018-11-25T01:30:17.250Z,100122.12
2018-11-25T01:32:49.954Z,100119.58
2018-11-25T01:35:18.898Z,100121.13
2018-11-25T01:37:48.052Z,100122.72
2018-11-25T01:40:17.786Z,100121.36
2018-11-25T01:42:46.683Z,100121.95
2018-11-25T01:45:17.230Z,100114.41
2018-11-25T01:47:46.166Z,100112.20
2018-11-25T01:50:17.070Z,100108.19
2018-11-25T01:52:46.066Z,100110.03
2018-11-25T01:55:18.945Z,100102.55
2018-11-25T01:57:48.906Z,100097.08
2018-11-25T02:00:21.210Z,100096.55
2018-11-25T02:02:51.000Z,100091.70
2018-11-25T02:05:20.075Z,100094.69
2018-11-25T02:07:53.706Z,100085.30
2018-11-25T02:10:22.496Z,100082.40
2018-11-25T02:12:55.289Z,100072.16
2018-11-25T02:15:24.105Z,100074.52
2018-11-25T02:20:32.333Z,100071.13
2018-11-25T02:23:01.223Z,100073.75
2018-11-25T02:25:41.162Z,100059.66
2018-11-25T02:28:09.972Z,100060.12
2018-11-25T02:30:40.878Z,100053.03
2018-11-25T02:33:09.709Z,100056.14
2018-11-25T02:35:39.601Z,100047.42
2018-11-25T02:38:08.819Z,100048.05
2018-11-25T02:40:37.695Z,100053.75
2018-11-25T02:43:06.758Z,100048.96
2018-11-25T02:45:39.151Z,100052.21
2018-11-25T02:48:08.010Z,100053.06
2018-11-25T02:50:36.837Z,100052.20
2018-11-25T02:53:07.320Z,100049.82
2018-11-25T02:55:47.002Z,100050.36
2018-11-25T02:58:16.317Z,100042.88
2018-11-25T03:00:45.273Z,100038.81
2018-11-25T03:03:14.110Z,100039.80
2018-11-25T03:05:43.250Z,100034.97
2018-11-25T03:08:15.527Z,100043.27
2018-11-25T03:10:44.374Z,100031.86
2018-11-25T03:13:13.511Z,100036.96
2018-11-25T03:15:42.353Z,100036.59
2018-11-25T03:18:11.202Z,100024.33
2018-11-25T03:20:40.122Z,100023.50
2018-11-25T03:23:08.938Z,100029.02
2018-11-25T03:25:37.868Z,100028.11
2018-11-25T03:28:07.048Z,100028.25
2018-11-25T03:30:35.842Z,100027.43
2018-11-25T03:33:10.675Z,100019.58
2018-11-25T03:35:39.536Z,100015.65
2018-11-25T03:38:09.930Z,100013.09
2018-11-25T03:40:39.066Z,100014.25
2018-11-25T03:43:07.911Z,100012.55
2018-11-25T03:45:37.064Z,100013.40
2018-11-25T03:48:06.262Z,100014.56
2018-11-25T03:50:35.102Z,100012.00
2018-11-25T03:53:04.334Z,100004.46
2018-11-25T03:55:40.165Z,100006.54
2018-11-25T03:58:09.047Z,100007.08
2018-11-25T04:00:37.941Z,100008.79
2018-11-25T04:03:06.833Z,100016.92
2018-11-25T04:05:35.970Z,100009.92
2018-11-25T04:08:05.602Z,100012.63
2018-11-25T04:10:34.491Z,100004.92
2018-11-25T04:13:03.667Z,100008.53
2018-11-25T04:15:32.580Z,100008.23
2018-11-25T04:18:02.081Z,100004.31
2018-11-25T04:20:33.408Z,100010.86
2018-11-25T04:23:02.235Z,100008.31
2018-11-25T04:25:31.039Z,100013.86
2018-11-25T04:28:00.118Z,100007.31
2018-11-25T04:30:32.272Z,100004.10
2018-11-25T04:33:01.819Z,99999.41
2018-11-25T04:35:31.014Z,100000.63
2018-11-25T04:37:59.842Z,100002.25
2018-11-25T04:40:28.630Z,100001.08
2018-11-25T04:43:03.106Z,99997.61
2018-11-25T04:45:31.898Z,99997.84
2018-11-25T04:48:00.702Z,100000.17
2018-11-25T04:50:29.858Z,99997.47
2018-11-25T04:53:04.250Z,99995.00
2018-11-25T04:55:33.173Z,99995.80
2018-11-25T04:58:03.823Z,99994.48
2018-11-25T05:00:32.650Z,99990.84
2018-11-25T05:03:01.739Z,99991.30
2018-11-25T05:05:30.557Z,99992.09
2018-11-25T05:07:59.340Z,99991.33
2018-11-25T05:10:28.514Z,99980.69
2018-11-25T05:12:58.938Z,99979.07
2018-11-25T05:15:33.987Z,99972.08
2018-11-25T05:18:04.753Z,99965.63
2018-11-25T05:20:39.114Z,99962.78
2018-11-25T05:23:07.920Z,99963.86
2018-11-25T05:25:36.841Z,99960.48
2018-11-25T05:28:05.861Z,99968.47
2018-11-25T05:30:35.017Z,99960.62
2018-11-25T05:33:07.057Z,99968.47
2018-11-25T05:35:35.858Z,99968.70
2018-11-25T05:38:05.747Z,99972.16
2018-11-25T05:40:34.573Z,99968.92
2018-11-25T05:43:03.442Z,99974.47
2018-11-25T05:45:32.271Z,99975.95
2018-11-25T05:48:01.065Z,99974.78
2018-11-25T05:50:30.258Z,99978.16
2018-11-25T05:53:04.770Z,99985.56
2018-11-25T05:55:33.617Z,99979.92
2018-11-25T05:58:03.050Z,99987.86
2018-11-25T06:00:33.098Z,99982.86
2018-11-25T06:03:02.341Z,99983.94
2018-11-25T06:05:35.889Z,99981.62
2018-11-25T06:08:05.301Z,99979.41
2018-11-25T06:10:34.098Z,99982.53
2018-11-25T06:13:02.934Z,99977.16
2018-11-25T06:15:32.075Z,99974.77
2018-11-25T06:18:00.907Z,99975.53
2018-11-25T06:20:33.426Z,99975.85
2018-11-25T06:23:02.554Z,99973.16
2018-11-25T06:25:31.371Z,99973.64
2018-11-25T06:28:06.649Z,99973.23
2018-11-25T06:30:35.820Z,99968.09
2018-11-25T06:33:04.691Z,99969.85
2018-11-25T06:35:33.564Z,99968.69
2018-11-25T06:38:03.281Z,99973.92
2018-11-25T06:40:32.154Z,99966.33
2018-11-25T06:43:00.988Z,99964.17
2018-11-25T06:45:30.723Z,99965.39
2018-11-25T06:47:59.838Z,99968.41
2018-11-25T06:50:28.845Z,99969.31
2018-11-25T06:52:57.956Z,99960.78
2018-11-25T06:55:26.785Z,99966.09
2018-11-25T06:58:02.561Z,99964.08
2018-11-25T07:00:31.774Z,99970.00
2018-11-25T07:03:01.495Z,99962.41
2018-11-25T07:05:30.321Z,99958.09
2018-11-25T07:08:02.304Z,99953.08
2018-11-25T07:10:31.200Z,99958.00
2018-11-25T07:12:59.947Z,99955.70
2018-11-25T07:15:35.992Z,99956.55
2018-11-25T07:18:05.389Z,99961.92
2018-11-25T07:23:43.510Z,99964.45
2018-11-25T07:26:16.717Z,99965.94
2018-11-25T07:28:53.286Z,99970.31
2018-11-25T07:31:31.369Z,99959.28
2018-11-25T07:37:09.792Z,99959.58
2018-11-25T07:39:38.663Z,99953.77
2018-11-25T07:42:14.855Z,99957.89
2018-11-25T07:44:43.938Z,99947.98
2018-11-25T07:47:12.741Z,99948.65
2018-11-25T07:49:41.533Z,99943.59
2018-11-25T07:52:10.634Z,99939.72
2018-11-25T07:54:40.354Z,99939.77
2018-11-25T07:57:09.139Z,99939.95
2018-11-25T07:59:39.304Z,99938.08
2018-11-25T08:04:43.531Z,99946.08
2018-11-25T08:07:12.653Z,99940.24
2018-11-25T08:09:41.510Z,99936.83
2018-11-25T08:14:50.147Z,99928.56
2018-11-25T08:17:18.996Z,99925.55
2018-11-25T08:19:47.857Z,99920.69
2018-11-25T08:22:16.926Z,99923.88
2018-11-25T08:24:45.741Z,99925.80
2018-11-25T08:27:14.820Z,99918.13
2018-11-25T08:29:43.745Z,99915.57
2018-11-25T08:32:12.693Z,99915.96
2018-11-25T08:34:41.456Z,99913.34
2018-11-25T08:37:10.237Z,99910.62
2018-11-25T08:39:39.339Z,99910.22
2018-11-25T08:42:08.142Z,99905.92
2018-11-25T08:44:37.000Z,99898.52
2018-11-25T08:47:06.024Z,99898.88
2018-11-25T08:49:34.825Z,99900.19
2018-11-25T08:52:04.635Z,99900.69
2018-11-25T08:54:33.473Z,99895.89
2018-11-25T08:57:02.289Z,99890.39
2018-11-25T08:59:31.107Z,99887.41
2018-11-25T09:02:03.969Z,99883.67
2018-11-25T09:04:33.099Z,99886.95
2018-11-25T09:07:01.983Z,99893.16
2018-11-25T09:09:30.827Z,99882.47
2018-11-25T09:12:00.001Z,99885.28
2018-11-25T09:14:28.889Z,99887.55
2018-11-25T09:17:01.922Z,99884.03
2018-11-25T09:19:31.179Z,99881.61
2018-11-25T09:22:05.957Z,99880.05
2018-11-25T09:24:34.908Z,99875.65
2018-11-25T09:27:04.751Z,99873.93
2018-11-25T09:29:33.696Z,99867.07
2018-11-25T09:32:04.876Z,99859.94
2018-11-25T09:34:33.738Z,99863.70
2018-11-25T09:37:02.653Z,99849.48
2018-11-25T09:39:31.756Z,99849.37
2018-11-25T09:42:00.646Z,99842.50
2018-11-25T09:44:29.513Z,99840.07
2018-11-25T09:46:58.567Z,99846.25
2018-11-25T09:49:27.413Z,99847.30
2018-11-25T09:51:56.663Z,99837.56
2018-11-25T09:54:30.770Z,99842.20
2018-11-25T09:56:59.816Z,99837.94
2018-11-25T09:59:28.703Z,99836.38
2018-11-25T10:01:57.662Z,99833.72
2018-11-25T10:04:26.920Z,99839.32
2018-11-25T10:06:55.850Z,99839.32
2018-11-25T10:09:24.719Z,99833.36
2018-11-25T10:11:53.874Z,99834.09
2018-11-25T10:14:22.760Z,99831.67
2018-11-25T10:16:57.362Z,99833.32
2018-11-25T10:19:26.492Z,99830.84
2018-11-25T10:22:00.638Z,99833.28
2018-11-25T10:24:29.549Z,99832.30
2018-11-25T10:26:58.894Z,99828.92
2018-11-25T10:29:27.793Z,99823.88
2018-11-25T10:31:58.501Z,99825.73
2018-11-25T10:34:28.936Z,99823.52
2018-11-25T10:36:57.872Z,99833.33
2018-11-25T10:39:29.758Z,99823.52
2018-11-25T10:41:59.091Z,99820.48
2018-11-25T10:44:28.027Z,99821.11
2018-11-25T10:46:57.132Z,99818.23
2018-11-25T10:49:26.255Z,99815.41
2018-11-25T10:51:55.474Z,99811.69
2018-11-25T10:54:24.316Z,99813.58
2018-11-25T10:56:58.274Z,99810.14
2018-11-25T10:59:27.255Z,99815.41
2018-11-25T11:02:03.181Z,99813.79
2018-11-25T11:04:37.177Z,99810.39
2018-11-25T11:07:14.771Z,99808.66
2018-11-25T11:09:44.034Z,99799.18
2018-11-25T11:12:12.942Z,99800.22
2018-11-25T11:14:42.066Z,99796.63
2018-11-25T11:17:10.865Z,99795.45
2018-11-25T11:19:39.691Z,99789.48
2018-11-25T11:22:08.833Z,99786.16
2018-11-25T11:24:42.803Z,99782.17
2018-11-25T11:27:11.889Z,99779.65
2018-11-25T11:29:40.758Z,99778.41
2018-11-25T11:32:09.687Z,99780.31
2018-11-25T11:34:39.849Z,99777.48
2018-11-25T11:37:08.786Z,99769.59
2018-11-25T11:39:41.656Z,99764.69
2018-11-25T11:42:10.987Z,99771.45
2018-11-25T11:44:39.845Z,99768.55
2018-11-25T11:47:08.884Z,99765.64
2018-11-25T11:49:41.052Z,99756.55
2018-11-25T11:52:09.968Z,99754.81
2018-11-25T11:54:41.033Z,99754.23
2018-11-25T11:57:10.214Z,99751.88
2018-11-25T11:59:39.070Z,99753.59
2018-11-25T12:02:08.103Z,99759.27
2018-11-25T12:04:42.076Z,99745.96
2018-11-25T12:07:11.156Z,99748.52
2018-11-25T12:09:41.891Z,99751.80
2018-11-25T12:12:10.742Z,99750.95
2018-11-25T12:14:39.736Z,99746.34
2018-11-25T12:17:08.980Z,99744.94
2018-11-25T12:19:37.833Z,99745.75
2018-11-25T12:22:11.556Z,99745.58
2018-11-25T12:24:41.368Z,99750.30
2018-11-25T12:27:10.434Z,99742.63
2018-11-25T12:29:39.402Z,99747.64
2018-11-25T12:32:08.600Z,99744.82
2018-11-25T12:34:37.553Z,99738.83
2018-11-25T12:37:06.743Z,99738.36
2018-11-25T12:39:36.000Z,99728.01
2018-11-25T12:42:05.956Z,99730.98
2018-11-25T12:44:34.773Z,99731.45
2018-11-25T12:47:06.879Z,99723.05
2018-11-25T12:49:35.708Z,99724.64
2018-11-25T12:52:09.863Z,99725.10
2018-11-25T12:54:38.719Z,99719.59
2018-11-25T12:57:18.845Z,99718.78
2018-11-25T12:59:47.730Z,99710.92
2018-11-25T13:02:16.558Z,99708.70
2018-11-25T13:04:48.831Z,99706.92
2018-11-25T13:07:17.874Z,99701.58
2018-11-25T13:09:47.509Z,99697.17
2018-11-25T13:12:16.456Z,99697.39
2018-11-25T13:14:45.326Z,99697.39
2018-11-25T13:17:14.414Z,99688.80
2018-11-25T13:19:46.766Z,99690.79
2018-11-25T13:22:15.897Z,99692.00
2018-11-25T13:24:45.081Z,99687.67
2018-11-25T13:27:13.949Z,99690.69
2018-11-25T13:29:42.784Z,99688.98
2018-11-25T13:32:17.540Z,99695.38
2018-11-25T13:34:46.390Z,99689.03
2018-11-25T13:37:15.242Z,99685.91
2018-11-25T13:39:44.421Z,99685.50
2018-11-25T13:42:16.319Z,99689.05
2018-11-25T13:44:43.451Z,99691.67
2018-11-25T13:47:13.220Z,99688.42
2018-11-25T13:49:42.204Z,99699.28
2018-11-25T13:52:11.046Z,99693.21
2018-11-25T13:54:43.989Z,99694.30
2018-11-25T13:57:13.046Z,99690.09
2018-11-25T13:59:45.722Z,99689.64
2018-11-25T14:02:15.158Z,99682.42
2018-11-25T14:04:45.187Z,99682.31
2018-11-25T14:07:17.475Z,99684.48
2018-11-25T14:09:53.322Z,99672.72
2018-11-25T14:12:26.541Z,99672.94
2018-11-25T14:14:56.060Z,99678.08
2018-11-25T14:17:28.391Z,99675.98
2018-11-25T14:19:57.207Z,99670.48
2018-11-25T14:22:26.966Z,99666.27
2018-11-25T14:24:55.973Z,99657.06
2018-11-25T14:27:31.769Z,99651.24
2018-11-25T14:30:00.944Z,99656.91
2018-11-25T14:32:29.761Z,99649.42
2018-11-25T14:34:58.592Z,99651.92
2018-11-25T14:37:27.705Z,99647.92
2018-11-25T14:39:56.522Z,99647.87
2018-11-25T14:42:25.366Z,99654.16
2018-11-25T14:44:54.523Z,99646.11
2018-11-25T14:47:34.235Z,99648.80
2018-11-25T14:50:04.093Z,99646.86
2018-11-25T14:52:33.254Z,99654.27
2018-11-25T14:55:09.298Z,99660.72
2018-11-25T14:57:38.168Z,99653.64
2018-11-25T15:00:13.003Z,99652.67
2018-11-25T15:02:48.796Z,99655.52
2018-11-25T15:05:19.859Z,99654.09
2018-11-25T15:07:53.676Z,99655.70
2018-11-25T15:10:22.993Z,99653.75
2018-11-25T15:12:58.702Z,99657.30
2018-11-25T15:15:28.970Z,99649.14
2018-11-25T15:18:04.336Z,99648.78
2018-11-25T15:20:33.174Z,99647.87
2018-11-25T15:23:03.904Z,99652.38
2018-11-25T15:25:34.875Z,99651.13
2018-11-25T15:28:09.583Z,99653.02
2018-11-25T15:30:38.487Z,99650.22
2018-11-25T15:33:07.699Z,99644.78
2018-11-25T15:35:36.923Z,99645.35
2018-11-25T15:38:09.553Z,99646.48
2018-11-25T15:40:39.128Z,99646.48
2018-11-25T15:43:08.968Z,99646.12
2018-11-25T15:45:38.813Z,99644.43
2018-11-25T15:48:16.850Z,99646.20
2018-11-25T15:50:48.980Z,99640.31
2018-11-25T15:53:18.610Z,99642.09
2018-11-25T15:55:54.201Z,99643.15
2018-11-25T15:58:23.471Z,99636.77
2018-11-25T16:00:52.585Z,99639.00
2018-11-25T16:03:21.520Z,99631.80
2018-11-25T16:05:57.834Z,99635.84
2018-11-25T16:08:26.852Z,99638.18
2018-11-25T16:10:55.962Z,99639.31
2018-11-25T16:13:25.092Z,99643.98
2018-11-25T16:15:54.040Z,99629.95
2018-11-25T16:18:25.786Z,99635.47
2018-11-25T16:20:55.164Z,99633.05
2018-11-25T16:23:24.451Z,99636.41
2018-11-25T16:25:55.532Z,99645.20
2018-11-25T16:28:27.393Z,99643.42
2018-11-25T16:30:56.598Z,99647.63
2018-11-25T16:33:28.067Z,99652.52
2018-11-25T16:35:57.035Z,99645.39
2018-11-25T16:38:25.918Z,99651.19
2018-11-25T16:40:55.216Z,99654.20
2018-11-25T16:43:25.168Z,99657.18
2018-11-25T16:45:55.613Z,99663.55
2018-11-25T16:48:24.454Z,99661.67
2018-11-25T16:50:53.450Z,99659.25
2018-11-25T16:53:22.369Z,99656.64
2018-11-25T16:55:53.639Z,99658.02
2018-11-25T16:58:22.516Z,99657.47
2018-11-25T17:00:51.867Z,99653.41
2018-11-25T17:03:21.706Z,99657.44
2018-11-25T17:05:52.652Z,99655.97
2018-11-25T17:08:43.697Z,99653.41
2018-11-25T17:11:13.279Z,99656.59
2018-11-25T17:13:42.587Z,99655.58
2018-11-25T17:16:11.809Z,99656.13
2018-11-25T17:18:41.204Z,99652.02
2018-11-25T17:21:11.251Z,99657.16
2018-11-25T17:23:40.156Z,99652.47
2018-11-25T17:26:12.870Z,99657.16
2018-11-25T17:28:43.019Z,99651.66
2018-11-25T17:31:12.367Z,99656.05
2018-11-25T17:33:41.923Z,99654.34
2018-11-25T17:36:11.020Z,99650.41
2018-11-25T17:38:40.032Z,99655.75
2018-11-25T17:41:09.323Z,99650.80
2018-11-25T17:43:38.277Z,99648.64
2018-11-25T17:46:07.202Z,99652.41
2018-11-25T17:48:36.116Z,99651.16
2018-11-25T17:51:05.182Z,99651.66
2018-11-25T17:53:36.015Z,99644.71
2018-11-25T17:56:06.976Z,99641.34
2018-11-25T17:58:36.009Z,99638.36
2018-11-25T18:01:07.477Z,99646.68
2018-11-25T18:03:37.824Z,99642.56
2018-11-25T18:06:09.243Z,99644.23
2018-11-25T18:08:39.114Z,99649.76
2018-11-25T18:11:11.728Z,99654.25
2018-11-25T18:13:49.878Z,99655.56
2018-11-25T18:16:19.928Z,99655.72
2018-11-25T18:18:51.366Z,99656.73
2018-11-25T18:21:22.394Z,99666.73
2018-11-25T18:23:51.949Z,99665.42
2018-11-25T18:26:21.395Z,99669.31
2018-11-25T18:28:50.391Z,99662.27
2018-11-25T18:31:20.181Z,99664.53
2018-11-25T18:33:49.473Z,99660.50
2018-11-25T18:36:18.812Z,99664.44
2018-11-25T18:38:59.393Z,99664.44
2018-11-25T18:41:28.830Z,99659.09
2018-11-25T18:43:58.715Z,99667.16
2018-11-25T18:46:28.311Z,99668.03
2018-11-25T18:48:57.704Z,99670.30
2018-11-25T18:51:29.011Z,99668.89
2018-11-25T18:53:58.659Z,99669.71
2018-11-25T18:56:27.779Z,99671.12
2018-11-25T18:58:57.462Z,99674.66
2018-11-25T19:01:30.873Z,99674.75
2018-11-25T19:04:00.305Z,99679.08
2018-11-25T19:06:30.015Z,99681.30
2018-11-25T19:08:59.760Z,99687.61
2018-11-25T19:11:29.186Z,99692.75
2018-11-25T19:13:58.756Z,99691.94
2018-11-25T19:16:28.272Z,99688.36
2018-11-25T19:19:09.170Z,99696.56
2018-11-25T19:21:38.912Z,99702.81
2018-11-25T19:24:15.680Z,99711.52
2018-11-25T19:26:45.191Z,99707.28
2018-11-25T19:29:14.710Z,99717.23
2018-11-25T19:31:44.542Z,99710.23
2018-11-25T19:34:16.224Z,99718.40
2018-11-25T19:36:45.759Z,99718.53
2018-11-25T19:39:15.481Z,99718.05
2018-11-25T19:41:45.114Z,99715.34
2018-11-25T19:44:14.789Z,99714.06
2018-11-25T19:46:49.514Z,99717.77
2018-11-25T19:49:19.041Z,99716.56
2018-11-25T19:51:55.385Z,99706.79
2018-11-25T19:54:24.894Z,99711.11
2018-11-25T19:56:54.307Z,99709.09
2018-11-25T19:59:25.067Z,99715.45
2018-11-25T20:01:54.642Z,99718.68
2018-11-25T20:04:24.243Z,99712.14
2018-11-25T20:06:54.966Z,99721.28
2018-11-25T20:09:24.752Z,99719.59
2018-11-25T20:11:54.230Z,99721.36
2018-11-25T20:14:23.714Z,99725.59
2018-11-25T20:16:58.023Z,99733.80
2018-11-25T20:19:27.738Z,99725.83
2018-11-25T20:22:04.581Z,99723.05
2018-11-25T20:24:34.000Z,99727.27
2018-11-25T20:27:08.845Z,99726.59
2018-11-25T20:29:38.417Z,99729.28
2018-11-25T20:32:12.897Z,99728.75
2018-11-25T20:34:45.673Z,99731.48
2018-11-25T20:37:15.564Z,99734.71
2018-11-25T20:39:45.120Z,99740.62
2018-11-25T20:42:14.666Z,99731.88
2018-11-25T20:44:49.236Z,99732.48
2018-11-25T20:47:18.645Z,99730.81
2018-11-25T20:52:27.411Z,99725.28
2018-11-25T20:55:00.467Z,99727.81
2018-11-25T20:57:29.361Z,99724.30
2018-11-25T20:59:59.546Z,99723.67
2018-11-25T21:02:35.078Z,99733.44
2018-11-25T21:05:05.138Z,99723.91
2018-11-25T21:07:38.525Z,99725.30
2018-11-25T21:10:09.526Z,99725.08
2018-11-25T21:12:38.823Z,99724.59
2018-11-25T21:15:09.177Z,99725.22
2018-11-25T21:17:38.163Z,99725.98
2018-11-25T21:20:23.537Z,99729.25
2018-11-25T21:23:00.528Z,99728.77
2018-11-25T21:25:31.866Z,99727.02
2018-11-25T21:29:03.315Z,99720.80
2018-11-25T21:31:32.456Z,99719.48
2018-11-25T21:34:07.388Z,99714.48
2018-11-25T21:36:36.338Z,99712.10
2018-11-25T21:39:08.403Z,99716.96
2018-11-25T21:44:12.908Z,99718.80
2018-11-25T21:46:41.746Z,99720.39
2018-11-25T21:49:16.326Z,99716.25
2018-11-25T21:51:45.417Z,99716.20
2018-11-25T21:54:14.356Z,99712.10
2018-11-25T21:56:43.301Z,99705.66
2018-11-25T21:59:12.454Z,99707.73
2018-11-25T22:01:41.382Z,99708.95
2018-11-25T22:04:10.258Z,99706.42
2018-11-25T22:06:39.469Z,99701.95
2018-11-25T22:09:10.240Z,99702.32
2018-11-25T22:11:39.114Z,99701.41
2018-11-25T22:14:07.979Z,99702.55
2018-11-25T22:16:36.766Z,99700.33
2018-11-25T22:19:06.009Z,99705.24
2018-11-25T22:21:34.861Z,99706.02
2018-11-25T22:24:04.413Z,99702.55
2018-11-25T22:26:33.384Z,99699.93
2018-11-25T22:29:02.635Z,99703.03
2018-11-25T22:31:31.938Z,99712.39
2018-11-25T22:34:00.832Z,99706.41
2018-11-25T22:36:29.724Z,99706.69
2018-11-25T22:38:58.594Z,99705.23
2018-11-25T22:41:27.498Z,99709.92
2018-11-25T22:43:59.727Z,99706.69
2018-11-25T22:46:28.608Z,99700.95
2018-11-25T22:48:57.468Z,99699.01
2018-11-25T22:51:26.680Z,99701.08
2018-11-25T22:53:55.534Z,99701.44
2018-11-25T22:56:24.421Z,99708.20
2018-11-25T22:58:53.498Z,99702.52
2018-11-25T23:01:28.093Z,99704.53
2018-11-25T23:04:07.881Z,99700.61
2018-11-25T23:06:47.943Z,99704.58
2018-11-25T23:09:16.897Z,99709.48
2018-11-25T23:11:45.971Z,99710.88
2018-11-25T23:14:14.914Z,99711.55
2018-11-25T23:16:44.094Z,99710.77
2018-11-25T23:19:13.331Z,99715.45
2018-11-25T23:21:42.166Z,99718.70
2018-11-25T23:24:11.190Z,99715.75
2018-11-25T23:26:40.926Z,99711.19
2018-11-25T23:29:09.979Z,99716.29
2018-11-25T23:31:42.419Z,99710.52
2018-11-25T23:34:11.342Z,99708.91
2018-11-25T23:36:41.441Z,99698.91
2018-11-25T23:39:10.802Z,99703.73
2018-11-25T23:41:50.592Z,99699.69
2018-11-25T23:44:20.098Z,99707.38
2018-11-25T23:46:49.010Z,99711.53
2018-11-25T23:49:29.611Z,99715.36
2018-11-25T23:52:01.053Z,99707.98
2018-11-25T23:54:30.118Z,99705.67
2018-11-25T23:57:02.898Z,99699.59
2018-11-25T23:59:32.000Z,99693.45
